sensor_id;sensor_type;location;lat;lon;timestamp;temperature;humidity
5759;DHT22;2904;48.788;9.196;2022-07-18T00:01:59;20.30;76.10
5759;DHT22;2904;48.788;9.196;2022-07-18T00:04:25;20.30;76.40
5759;DHT22;2904;48.788;9.196;2022-07-18T00:06:52;20.20;76.70
5759;DHT22;2904;48.788;9.196;2022-07-18T00:09:18;20.20;75.20
5759;DHT22;2904;48.788;9.196;2022-07-18T00:11:45;20.30;77.80
5759;DHT22;2904;48.788;9.196;2022-07-18T00:14:11;20.10;75.70
5759;DHT22;2904;48.788;9.196;2022-07-18T00:16:37;19.90;77.90
5759;DHT22;2904;48.788;9.196;2022-07-18T00:19:03;20.00;78.40
5759;DHT22;2904;48.788;9.196;2022-07-18T00:21:29;20.00;77.90
5759;DHT22;2904;48.788;9.196;2022-07-18T00:23:55;19.80;80.00
5759;DHT22;2904;48.788;9.196;2022-07-18T00:28:47;19.80;80.80
5759;DHT22;2904;48.788;9.196;2022-07-18T00:31:12;19.60;80.50
5759;DHT22;2904;48.788;9.196;2022-07-18T00:33:38;19.70;81.00
5759;DHT22;2904;48.788;9.196;2022-07-18T00:38:29;19.70;81.70
5759;DHT22;2904;48.788;9.196;2022-07-18T00:40:55;18.90;81.40
5759;DHT22;2904;48.788;9.196;2022-07-18T00:45:49;19.60;82.80
5759;DHT22;2904;48.788;9.196;2022-07-18T00:48:15;19.60;82.70
5759;DHT22;2904;48.788;9.196;2022-07-18T00:50:43;19.20;82.30
5759;DHT22;2904;48.788;9.196;2022-07-18T00:53:09;19.50;82.90
5759;DHT22;2904;48.788;9.196;2022-07-18T00:55:40;19.40;82.60
5759;DHT22;2904;48.788;9.196;2022-07-18T00:58:08;19.50;79.70
5759;DHT22;2904;48.788;9.196;2022-07-18T01:00:34;19.50;83.20
5759;DHT22;2904;48.788;9.196;2022-07-18T01:03:18;19.30;83.60
5759;DHT22;2904;48.788;9.196;2022-07-18T01:05:44;19.20;83.70
5759;DHT22;2904;48.788;9.196;2022-07-18T01:08:10;19.20;85.40
5759;DHT22;2904;48.788;9.196;2022-07-18T01:10:35;19.10;86.40
5759;DHT22;2904;48.788;9.196;2022-07-18T01:13:01;19.10;87.40
5759;DHT22;2904;48.788;9.196;2022-07-18T01:15:27;19.00;87.70
5759;DHT22;2904;48.788;9.196;2022-07-18T01:17:53;19.00;88.40
5759;DHT22;2904;48.788;9.196;2022-07-18T01:20:18;18.90;88.80
5759;DHT22;2904;48.788;9.196;2022-07-18T01:25:11;18.80;86.40
5759;DHT22;2904;48.788;9.196;2022-07-18T01:27:37;18.90;87.90
5759;DHT22;2904;48.788;9.196;2022-07-18T01:30:04;18.80;86.10
5759;DHT22;2904;48.788;9.196;2022-07-18T01:32:30;18.70;89.10
5759;DHT22;2904;48.788;9.196;2022-07-18T01:34:56;18.80;88.90
5759;DHT22;2904;48.788;9.196;2022-07-18T01:37:21;18.70;87.70
5759;DHT22;2904;48.788;9.196;2022-07-18T01:42:14;18.60;89.80
5759;DHT22;2904;48.788;9.196;2022-07-18T01:44:40;18.60;90.30
5759;DHT22;2904;48.788;9.196;2022-07-18T01:47:07;18.50;90.40
5759;DHT22;2904;48.788;9.196;2022-07-18T01:49:34;18.40;88.30
5759;DHT22;2904;48.788;9.196;2022-07-18T01:52:00;18.20;88.50
5759;DHT22;2904;48.788;9.196;2022-07-18T01:54:29;18.20;89.90
5759;DHT22;2904;48.788;9.196;2022-07-18T01:56:56;18.30;91.40
5759;DHT22;2904;48.788;9.196;2022-07-18T01:59:22;18.30;90.10
5759;DHT22;2904;48.788;9.196;2022-07-18T02:01:50;18.10;89.90
5759;DHT22;2904;48.788;9.196;2022-07-18T02:04:16;18.20;91.70
5759;DHT22;2904;48.788;9.196;2022-07-18T02:06:41;18.20;91.80
5759;DHT22;2904;48.788;9.196;2022-07-18T02:09:08;18.10;91.60
5759;DHT22;2904;48.788;9.196;2022-07-18T02:11:34;18.00;91.90
5759;DHT22;2904;48.788;9.196;2022-07-18T02:14:01;18.00;90.20
5759;DHT22;2904;48.788;9.196;2022-07-18T02:16:27;18.00;91.80
5759;DHT22;2904;48.788;9.196;2022-07-18T02:21:19;18.00;92.70
5759;DHT22;2904;48.788;9.196;2022-07-18T02:26:10;17.90;92.60
5759;DHT22;2904;48.788;9.196;2022-07-18T02:28:36;17.80;92.60
5759;DHT22;2904;48.788;9.196;2022-07-18T02:31:04;17.80;92.90
5759;DHT22;2904;48.788;9.196;2022-07-18T02:33:30;17.80;92.70
5759;DHT22;2904;48.788;9.196;2022-07-18T02:40:49;17.70;92.00
5759;DHT22;2904;48.788;9.196;2022-07-18T02:43:14;18.20;92.40
5759;DHT22;2904;48.788;9.196;2022-07-18T02:45:40;17.70;94.10
5759;DHT22;2904;48.788;9.196;2022-07-18T02:48:06;17.70;94.30
5759;DHT22;2904;48.788;9.196;2022-07-18T02:50:31;17.60;94.70
5759;DHT22;2904;48.788;9.196;2022-07-18T02:52:57;17.60;94.80
5759;DHT22;2904;48.788;9.196;2022-07-18T02:55:23;17.50;94.10
5759;DHT22;2904;48.788;9.196;2022-07-18T02:57:49;17.60;93.70
5759;DHT22;2904;48.788;9.196;2022-07-18T03:00:16;17.40;95.50
5759;DHT22;2904;48.788;9.196;2022-07-18T03:02:43;16.80;95.80
5759;DHT22;2904;48.788;9.196;2022-07-18T03:07:36;17.40;96.10
5759;DHT22;2904;48.788;9.196;2022-07-18T03:10:03;17.40;96.60
5759;DHT22;2904;48.788;9.196;2022-07-18T03:12:29;18.00;99.10
5759;DHT22;2904;48.788;9.196;2022-07-18T03:14:54;17.30;99.40
5759;DHT22;2904;48.788;9.196;2022-07-18T03:19:46;17.30;99.90
5759;DHT22;2904;48.788;9.196;2022-07-18T03:22:12;17.30;99.90
5759;DHT22;2904;48.788;9.196;2022-07-18T03:29:29;17.30;99.90
5759;DHT22;2904;48.788;9.196;2022-07-18T03:32:15;17.20;99.40
5759;DHT22;2904;48.788;9.196;2022-07-18T03:34:40;17.20;99.90
5759;DHT22;2904;48.788;9.196;2022-07-18T03:37:06;17.20;99.90
5759;DHT22;2904;48.788;9.196;2022-07-18T03:39:31;17.00;99.90
5759;DHT22;2904;48.788;9.196;2022-07-18T03:49:17;17.10;99.90
5759;DHT22;2904;48.788;9.196;2022-07-18T03:51:43;17.00;99.90
5759;DHT22;2904;48.788;9.196;2022-07-18T03:54:09;17.10;99.90
5759;DHT22;2904;48.788;9.196;2022-07-18T03:56:35;17.00;99.90
5759;DHT22;2904;48.788;9.196;2022-07-18T03:59:01;16.90;99.90
5759;DHT22;2904;48.788;9.196;2022-07-18T04:01:27;16.50;99.90
5759;DHT22;2904;48.788;9.196;2022-07-18T04:06:19;16.60;99.90
5759;DHT22;2904;48.788;9.196;2022-07-18T04:11:11;16.90;99.90
5759;DHT22;2904;48.788;9.196;2022-07-18T04:13:37;16.90;99.90
5759;DHT22;2904;48.788;9.196;2022-07-18T04:20:55;16.90;99.90
5759;DHT22;2904;48.788;9.196;2022-07-18T04:23:21;17.00;99.90
5759;DHT22;2904;48.788;9.196;2022-07-18T04:28:14;17.10;99.90
5759;DHT22;2904;48.788;9.196;2022-07-18T04:30:41;16.90;99.90
5759;DHT22;2904;48.788;9.196;2022-07-18T04:33:09;17.10;99.90
5759;DHT22;2904;48.788;9.196;2022-07-18T04:35:36;17.00;99.90
5759;DHT22;2904;48.788;9.196;2022-07-18T04:38:04;17.40;99.90
5759;DHT22;2904;48.788;9.196;2022-07-18T04:40:29;16.90;99.90
5759;DHT22;2904;48.788;9.196;2022-07-18T04:42:55;17.20;99.90
5759;DHT22;2904;48.788;9.196;2022-07-18T04:47:52;17.30;99.90
5759;DHT22;2904;48.788;9.196;2022-07-18T04:50:19;17.30;99.90
5759;DHT22;2904;48.788;9.196;2022-07-18T04:52:46;17.30;99.90
5759;DHT22;2904;48.788;9.196;2022-07-18T04:55:13;17.40;99.90
5759;DHT22;2904;48.788;9.196;2022-07-18T04:57:39;17.50;99.90
5759;DHT22;2904;48.788;9.196;2022-07-18T05:00:08;17.50;99.90
5759;DHT22;2904;48.788;9.196;2022-07-18T05:02:34;17.70;99.90
5759;DHT22;2904;48.788;9.196;2022-07-18T05:09:51;18.00;99.90
5759;DHT22;2904;48.788;9.196;2022-07-18T05:12:17;18.00;99.90
5759;DHT22;2904;48.788;9.196;2022-07-18T05:14:44;18.10;99.90
5759;DHT22;2904;48.788;9.196;2022-07-18T05:19:36;18.20;99.90
5759;DHT22;2904;48.788;9.196;2022-07-18T05:22:02;18.20;99.90
5759;DHT22;2904;48.788;9.196;2022-07-18T05:24:27;18.40;99.90
5759;DHT22;2904;48.788;9.196;2022-07-18T05:29:19;18.50;99.90
5759;DHT22;2904;48.788;9.196;2022-07-18T05:31:45;18.60;99.90
5759;DHT22;2904;48.788;9.196;2022-07-18T05:34:10;18.60;99.90
5759;DHT22;2904;48.788;9.196;2022-07-18T05:36:36;18.60;99.90
5759;DHT22;2904;48.788;9.196;2022-07-18T05:39:02;18.40;99.90
5759;DHT22;2904;48.788;9.196;2022-07-18T05:41:28;18.60;99.90
5759;DHT22;2904;48.788;9.196;2022-07-18T05:43:53;18.70;99.90
5759;DHT22;2904;48.788;9.196;2022-07-18T05:48:45;18.60;99.90
5759;DHT22;2904;48.788;9.196;2022-07-18T05:51:11;19.10;99.90
5759;DHT22;2904;48.788;9.196;2022-07-18T05:53:37;18.80;99.90
5759;DHT22;2904;48.788;9.196;2022-07-18T05:56:03;18.80;99.90
5759;DHT22;2904;48.788;9.196;2022-07-18T05:58:30;18.80;99.90
5759;DHT22;2904;48.788;9.196;2022-07-18T06:00:55;18.90;99.90
5759;DHT22;2904;48.788;9.196;2022-07-18T06:05:47;19.10;99.90
5759;DHT22;2904;48.788;9.196;2022-07-18T06:08:12;19.20;99.90
5759;DHT22;2904;48.788;9.196;2022-07-18T06:10:38;19.10;99.90
5759;DHT22;2904;48.788;9.196;2022-07-18T06:13:04;19.30;99.90
5759;DHT22;2904;48.788;9.196;2022-07-18T06:15:29;19.50;99.90
5759;DHT22;2904;48.788;9.196;2022-07-18T06:17:55;19.50;99.90
5759;DHT22;2904;48.788;9.196;2022-07-18T06:20:21;19.60;99.90
5759;DHT22;2904;48.788;9.196;2022-07-18T06:22:46;19.70;99.90
5759;DHT22;2904;48.788;9.196;2022-07-18T06:25:12;19.80;99.90
5759;DHT22;2904;48.788;9.196;2022-07-18T06:27:38;19.80;99.90
5759;DHT22;2904;48.788;9.196;2022-07-18T06:30:05;20.00;99.90
5759;DHT22;2904;48.788;9.196;2022-07-18T06:34:58;20.10;99.90
5759;DHT22;2904;48.788;9.196;2022-07-18T06:37:24;20.20;99.90
5759;DHT22;2904;48.788;9.196;2022-07-18T06:39:49;20.30;99.90
5759;DHT22;2904;48.788;9.196;2022-07-18T06:42:15;20.40;99.90
5759;DHT22;2904;48.788;9.196;2022-07-18T06:44:41;20.40;99.90
5759;DHT22;2904;48.788;9.196;2022-07-18T06:47:07;20.40;99.90
5759;DHT22;2904;48.788;9.196;2022-07-18T06:49:32;20.60;99.90
5759;DHT22;2904;48.788;9.196;2022-07-18T06:51:58;20.60;99.90
5759;DHT22;2904;48.788;9.196;2022-07-18T06:54:23;20.70;99.90
5759;DHT22;2904;48.788;9.196;2022-07-18T06:56:53;20.80;99.90
5759;DHT22;2904;48.788;9.196;2022-07-18T06:59:19;20.90;99.90
5759;DHT22;2904;48.788;9.196;2022-07-18T07:04:11;21.30;99.90
5759;DHT22;2904;48.788;9.196;2022-07-18T07:06:37;21.20;99.90
5759;DHT22;2904;48.788;9.196;2022-07-18T07:09:04;21.20;99.90
5759;DHT22;2904;48.788;9.196;2022-07-18T07:18:48;21.60;99.90
5759;DHT22;2904;48.788;9.196;2022-07-18T07:21:14;21.90;99.90
5759;DHT22;2904;48.788;9.196;2022-07-18T07:23:39;22.20;99.90
5759;DHT22;2904;48.788;9.196;2022-07-18T07:26:08;22.10;99.90
5759;DHT22;2904;48.788;9.196;2022-07-18T07:28:34;22.20;99.90
5759;DHT22;2904;48.788;9.196;2022-07-18T07:31:01;22.40;99.90
5759;DHT22;2904;48.788;9.196;2022-07-18T07:33:26;22.50;99.90
5759;DHT22;2904;48.788;9.196;2022-07-18T07:35:52;22.50;99.90
5759;DHT22;2904;48.788;9.196;2022-07-18T07:38:18;22.70;99.90
5759;DHT22;2904;48.788;9.196;2022-07-18T07:40:45;22.80;99.90
5759;DHT22;2904;48.788;9.196;2022-07-18T07:43:13;22.90;99.90
5759;DHT22;2904;48.788;9.196;2022-07-18T07:45:40;23.10;99.90
5759;DHT22;2904;48.788;9.196;2022-07-18T07:48:06;23.20;99.80
5759;DHT22;2904;48.788;9.196;2022-07-18T07:50:32;23.20;99.90
5759;DHT22;2904;48.788;9.196;2022-07-18T07:52:59;23.30;99.90
5759;DHT22;2904;48.788;9.196;2022-07-18T07:55:24;23.40;99.80
5759;DHT22;2904;48.788;9.196;2022-07-18T07:57:50;23.50;99.20
5759;DHT22;2904;48.788;9.196;2022-07-18T08:00:16;23.60;99.10
5759;DHT22;2904;48.788;9.196;2022-07-18T08:03:00;24.90;99.70
5759;DHT22;2904;48.788;9.196;2022-07-18T08:05:29;23.90;98.20
5759;DHT22;2904;48.788;9.196;2022-07-18T08:07:56;24.00;97.80
5759;DHT22;2904;48.788;9.196;2022-07-18T08:10:22;24.40;97.50
5759;DHT22;2904;48.788;9.196;2022-07-18T08:12:48;24.70;97.00
5759;DHT22;2904;48.788;9.196;2022-07-18T08:15:14;24.00;96.20
5759;DHT22;2904;48.788;9.196;2022-07-18T08:20:06;24.70;95.70
5759;DHT22;2904;48.788;9.196;2022-07-18T08:22:32;24.60;95.70
5759;DHT22;2904;48.788;9.196;2022-07-18T08:27:24;24.70;94.90
5759;DHT22;2904;48.788;9.196;2022-07-18T08:29:49;25.50;95.00
5759;DHT22;2904;48.788;9.196;2022-07-18T08:32:15;25.20;94.80
5759;DHT22;2904;48.788;9.196;2022-07-18T08:34:40;25.20;93.90
5759;DHT22;2904;48.788;9.196;2022-07-18T08:37:06;25.60;93.90
5759;DHT22;2904;48.788;9.196;2022-07-18T08:39:32;25.80;93.00
5759;DHT22;2904;48.788;9.196;2022-07-18T08:42:00;25.60;92.40
5759;DHT22;2904;48.788;9.196;2022-07-18T08:44:28;25.50;92.30
5759;DHT22;2904;48.788;9.196;2022-07-18T08:46:56;26.10;92.30
5759;DHT22;2904;48.788;9.196;2022-07-18T08:49:23;25.60;91.50
5759;DHT22;2904;48.788;9.196;2022-07-18T08:51:49;25.60;91.80
5759;DHT22;2904;48.788;9.196;2022-07-18T08:54:15;25.80;90.90
5759;DHT22;2904;48.788;9.196;2022-07-18T08:56:41;25.90;90.40
5759;DHT22;2904;48.788;9.196;2022-07-18T08:59:07;26.00;89.80
5759;DHT22;2904;48.788;9.196;2022-07-18T09:01:33;26.10;90.20
5759;DHT22;2904;48.788;9.196;2022-07-18T09:03:59;26.20;87.50
5759;DHT22;2904;48.788;9.196;2022-07-18T09:06:49;26.30;87.70
5759;DHT22;2904;48.788;9.196;2022-07-18T09:09:16;26.40;86.60
5759;DHT22;2904;48.788;9.196;2022-07-18T09:11:53;26.60;83.90
5759;DHT22;2904;48.788;9.196;2022-07-18T09:14:37;26.60;81.30
5759;DHT22;2904;48.788;9.196;2022-07-18T09:17:37;26.80;78.70
5759;DHT22;2904;48.788;9.196;2022-07-18T09:20:05;27.00;76.80
5759;DHT22;2904;48.788;9.196;2022-07-18T09:22:40;26.70;74.90
5759;DHT22;2904;48.788;9.196;2022-07-18T09:25:32;26.90;75.00
5759;DHT22;2904;48.788;9.196;2022-07-18T09:27:57;27.10;75.10
5759;DHT22;2904;48.788;9.196;2022-07-18T09:30:32;27.80;75.30
5759;DHT22;2904;48.788;9.196;2022-07-18T09:33:08;27.50;70.60
5759;DHT22;2904;48.788;9.196;2022-07-18T09:35:53;27.50;71.50
5759;DHT22;2904;48.788;9.196;2022-07-18T09:38:21;27.60;71.80
5759;DHT22;2904;48.788;9.196;2022-07-18T09:40:52;27.70;71.60
5759;DHT22;2904;48.788;9.196;2022-07-18T09:43:21;27.80;69.70
5759;DHT22;2904;48.788;9.196;2022-07-18T09:45:49;27.90;67.20
5759;DHT22;2904;48.788;9.196;2022-07-18T09:48:17;28.00;66.30
5759;DHT22;2904;48.788;9.196;2022-07-18T09:51:04;28.10;65.60
5759;DHT22;2904;48.788;9.196;2022-07-18T09:53:41;28.30;63.90
5759;DHT22;2904;48.788;9.196;2022-07-18T09:56:09;28.40;64.50
5759;DHT22;2904;48.788;9.196;2022-07-18T09:58:40;28.50;63.10
5759;DHT22;2904;48.788;9.196;2022-07-18T10:01:09;28.60;62.90
5759;DHT22;2904;48.788;9.196;2022-07-18T10:03:36;28.60;63.60
5759;DHT22;2904;48.788;9.196;2022-07-18T10:06:03;28.50;63.60
5759;DHT22;2904;48.788;9.196;2022-07-18T10:08:32;28.90;61.70
5759;DHT22;2904;48.788;9.196;2022-07-18T10:10:59;29.20;61.70
5759;DHT22;2904;48.788;9.196;2022-07-18T10:13:26;28.70;60.70
5759;DHT22;2904;48.788;9.196;2022-07-18T10:18:23;28.70;60.70
5759;DHT22;2904;48.788;9.196;2022-07-18T10:21:07;29.30;59.30
5759;DHT22;2904;48.788;9.196;2022-07-18T10:23:42;28.80;58.40
5759;DHT22;2904;48.788;9.196;2022-07-18T10:26:17;29.60;58.30
5759;DHT22;2904;48.788;9.196;2022-07-18T10:30:45;29.70;57.40
5759;DHT22;2904;48.788;9.196;2022-07-18T10:33:37;29.90;57.70
5759;DHT22;2904;48.788;9.196;2022-07-18T10:36:15;29.90;56.20
5759;DHT22;2904;48.788;9.196;2022-07-18T10:39:13;29.30;54.10
5759;DHT22;2904;48.788;9.196;2022-07-18T10:42:27;29.60;52.70
5759;DHT22;2904;48.788;9.196;2022-07-18T10:44:56;29.70;53.60
5759;DHT22;2904;48.788;9.196;2022-07-18T10:47:28;29.40;52.60
5759;DHT22;2904;48.788;9.196;2022-07-18T10:50:04;30.20;52.70
5759;DHT22;2904;48.788;9.196;2022-07-18T10:53:15;29.80;53.50
5759;DHT22;2904;48.788;9.196;2022-07-18T10:55:46;29.90;53.80
5759;DHT22;2904;48.788;9.196;2022-07-18T10:58:16;30.00;53.80
5759;DHT22;2904;48.788;9.196;2022-07-18T11:00:45;29.60;53.20
5759;DHT22;2904;48.788;9.196;2022-07-18T11:03:13;30.50;53.40
5759;DHT22;2904;48.788;9.196;2022-07-18T11:05:43;30.00;53.30
5759;DHT22;2904;48.788;9.196;2022-07-18T11:08:17;30.10;54.50
5759;DHT22;2904;48.788;9.196;2022-07-18T11:11:06;30.20;52.70
5759;DHT22;2904;48.788;9.196;2022-07-18T11:13:36;30.90;53.10
5759;DHT22;2904;48.788;9.196;2022-07-18T11:16:22;30.00;51.90
5759;DHT22;2904;48.788;9.196;2022-07-18T11:19:34;30.40;50.80
5759;DHT22;2904;48.788;9.196;2022-07-18T11:22:00;30.80;51.20
5759;DHT22;2904;48.788;9.196;2022-07-18T11:24:26;31.00;51.80
5759;DHT22;2904;48.788;9.196;2022-07-18T11:29:19;30.60;48.80
5759;DHT22;2904;48.788;9.196;2022-07-18T11:31:57;30.20;47.60
5759;DHT22;2904;48.788;9.196;2022-07-18T11:34:24;30.80;47.90
5759;DHT22;2904;48.788;9.196;2022-07-18T11:36:50;30.80;48.30
5759;DHT22;2904;48.788;9.196;2022-07-18T11:39:28;30.80;48.40
5759;DHT22;2904;48.788;9.196;2022-07-18T11:41:55;30.90;47.60
5759;DHT22;2904;48.788;9.196;2022-07-18T11:44:21;31.10;48.00
5759;DHT22;2904;48.788;9.196;2022-07-18T11:47:10;31.00;48.00
5759;DHT22;2904;48.788;9.196;2022-07-18T11:49:37;30.90;48.60
5759;DHT22;2904;48.788;9.196;2022-07-18T11:52:04;30.90;49.00
5759;DHT22;2904;48.788;9.196;2022-07-18T11:54:30;31.00;47.70
5759;DHT22;2904;48.788;9.196;2022-07-18T11:56:58;31.00;47.70
5759;DHT22;2904;48.788;9.196;2022-07-18T11:59:35;31.20;47.50
5759;DHT22;2904;48.788;9.196;2022-07-18T12:02:01;31.30;46.90
5759;DHT22;2904;48.788;9.196;2022-07-18T12:04:27;31.40;46.60
5759;DHT22;2904;48.788;9.196;2022-07-18T12:07:13;31.70;46.10
5759;DHT22;2904;48.788;9.196;2022-07-18T12:09:39;31.40;45.80
5759;DHT22;2904;48.788;9.196;2022-07-18T12:12:09;31.60;46.10
5759;DHT22;2904;48.788;9.196;2022-07-18T12:14:35;31.60;46.10
5759;DHT22;2904;48.788;9.196;2022-07-18T12:17:03;31.50;47.20
5759;DHT22;2904;48.788;9.196;2022-07-18T12:19:39;31.60;48.20
5759;DHT22;2904;48.788;9.196;2022-07-18T12:22:07;31.20;47.70
5759;DHT22;2904;48.788;9.196;2022-07-18T12:24:55;31.60;47.70
5759;DHT22;2904;48.788;9.196;2022-07-18T12:27:35;31.50;47.00
5759;DHT22;2904;48.788;9.196;2022-07-18T12:30:12;31.50;46.80
5759;DHT22;2904;48.788;9.196;2022-07-18T12:32:52;31.40;46.80
5759;DHT22;2904;48.788;9.196;2022-07-18T12:35:29;31.80;45.40
5759;DHT22;2904;48.788;9.196;2022-07-18T12:38:09;32.50;46.20
5759;DHT22;2904;48.788;9.196;2022-07-18T12:40:50;31.80;46.20
5759;DHT22;2904;48.788;9.196;2022-07-18T12:43:31;32.30;46.20
5759;DHT22;2904;48.788;9.196;2022-07-18T12:45:58;32.00;46.20
5759;DHT22;2904;48.788;9.196;2022-07-18T12:48:26;31.90;46.10
5759;DHT22;2904;48.788;9.196;2022-07-18T12:51:05;32.10;45.70
5759;DHT22;2904;48.788;9.196;2022-07-18T12:53:35;31.50;46.10
5759;DHT22;2904;48.788;9.196;2022-07-18T12:56:02;32.00;46.80
5759;DHT22;2904;48.788;9.196;2022-07-18T13:03:23;31.90;46.10
5759;DHT22;2904;48.788;9.196;2022-07-18T13:05:49;32.20;46.20
5759;DHT22;2904;48.788;9.196;2022-07-18T13:08:15;32.70;46.20
5759;DHT22;2904;48.788;9.196;2022-07-18T13:10:41;31.80;44.90
5759;DHT22;2904;48.788;9.196;2022-07-18T13:13:09;32.40;45.10
5759;DHT22;2904;48.788;9.196;2022-07-18T13:15:35;32.00;46.30
5759;DHT22;2904;48.788;9.196;2022-07-18T13:18:01;32.30;46.10
5759;DHT22;2904;48.788;9.196;2022-07-18T13:22:52;32.00;45.60
5759;DHT22;2904;48.788;9.196;2022-07-18T13:25:19;32.40;44.70
5759;DHT22;2904;48.788;9.196;2022-07-18T13:30:12;33.10;46.10
5759;DHT22;2904;48.788;9.196;2022-07-18T13:35:04;33.40;45.50
5759;DHT22;2904;48.788;9.196;2022-07-18T13:37:30;32.80;44.20
5759;DHT22;2904;48.788;9.196;2022-07-18T13:39:56;32.90;43.90
5759;DHT22;2904;48.788;9.196;2022-07-18T13:42:22;32.90;44.70
5759;DHT22;2904;48.788;9.196;2022-07-18T13:44:48;33.00;43.80
5759;DHT22;2904;48.788;9.196;2022-07-18T13:47:15;33.20;43.70
5759;DHT22;2904;48.788;9.196;2022-07-18T13:49:42;33.10;44.30
5759;DHT22;2904;48.788;9.196;2022-07-18T13:52:09;33.80;44.40
5759;DHT22;2904;48.788;9.196;2022-07-18T13:54:35;33.20;43.70
5759;DHT22;2904;48.788;9.196;2022-07-18T13:57:00;33.80;44.90
5759;DHT22;2904;48.788;9.196;2022-07-18T13:59:26;34.10;43.30
5759;DHT22;2904;48.788;9.196;2022-07-18T14:04:18;35.20;42.30
5759;DHT22;2904;48.788;9.196;2022-07-18T14:06:44;36.40;42.60
5759;DHT22;2904;48.788;9.196;2022-07-18T14:09:10;36.20;42.70
5759;DHT22;2904;48.788;9.196;2022-07-18T14:11:36;37.60;40.40
5759;DHT22;2904;48.788;9.196;2022-07-18T14:14:03;40.30;37.30
5759;DHT22;2904;48.788;9.196;2022-07-18T14:16:30;41.30;35.20
5759;DHT22;2904;48.788;9.196;2022-07-18T14:18:56;41.00;35.20
5759;DHT22;2904;48.788;9.196;2022-07-18T14:21:22;42.10;34.30
5759;DHT22;2904;48.788;9.196;2022-07-18T14:23:48;43.00;33.80
5759;DHT22;2904;48.788;9.196;2022-07-18T14:26:13;43.60;33.40
5759;DHT22;2904;48.788;9.196;2022-07-18T14:28:39;44.50;31.90
5759;DHT22;2904;48.788;9.196;2022-07-18T14:31:05;43.50;30.60
5759;DHT22;2904;48.788;9.196;2022-07-18T14:33:31;43.10;30.70
5759;DHT22;2904;48.788;9.196;2022-07-18T14:35:56;43.90;29.80
5759;DHT22;2904;48.788;9.196;2022-07-18T14:38:22;44.30;29.80
5759;DHT22;2904;48.788;9.196;2022-07-18T14:40:48;45.00;28.50
5759;DHT22;2904;48.788;9.196;2022-07-18T14:43:14;44.90;28.80
5759;DHT22;2904;48.788;9.196;2022-07-18T14:45:41;44.60;28.40
5759;DHT22;2904;48.788;9.196;2022-07-18T14:48:07;44.50;28.30
5759;DHT22;2904;48.788;9.196;2022-07-18T14:50:32;44.50;28.60
5759;DHT22;2904;48.788;9.196;2022-07-18T14:52:58;45.20;28.30
5759;DHT22;2904;48.788;9.196;2022-07-18T14:55:24;46.80;27.80
5759;DHT22;2904;48.788;9.196;2022-07-18T14:57:50;47.20;26.70
5759;DHT22;2904;48.788;9.196;2022-07-18T15:00:16;47.70;26.60
5759;DHT22;2904;48.788;9.196;2022-07-18T15:02:42;49.00;25.20
5759;DHT22;2904;48.788;9.196;2022-07-18T15:05:09;49.00;25.50
5759;DHT22;2904;48.788;9.196;2022-07-18T15:07:35;49.20;24.50
5759;DHT22;2904;48.788;9.196;2022-07-18T15:10:01;49.30;24.90
5759;DHT22;2904;48.788;9.196;2022-07-18T15:12:27;48.20;24.10
5759;DHT22;2904;48.788;9.196;2022-07-18T15:14:53;48.40;24.30
5759;DHT22;2904;48.788;9.196;2022-07-18T15:17:22;48.20;24.00
5759;DHT22;2904;48.788;9.196;2022-07-18T15:19:48;48.20;24.40
5759;DHT22;2904;48.788;9.196;2022-07-18T15:22:14;48.00;24.90
5759;DHT22;2904;48.788;9.196;2022-07-18T15:24:39;48.00;23.90
5759;DHT22;2904;48.788;9.196;2022-07-18T15:27:05;47.70;24.20
5759;DHT22;2904;48.788;9.196;2022-07-18T15:29:30;47.30;24.00
5759;DHT22;2904;48.788;9.196;2022-07-18T15:31:56;47.10;24.10
5759;DHT22;2904;48.788;9.196;2022-07-18T15:34:23;46.70;23.90
5759;DHT22;2904;48.788;9.196;2022-07-18T15:36:49;46.80;24.30
5759;DHT22;2904;48.788;9.196;2022-07-18T15:39:14;47.00;24.30
5759;DHT22;2904;48.788;9.196;2022-07-18T15:41:40;46.70;23.80
5759;DHT22;2904;48.788;9.196;2022-07-18T15:44:10;47.20;23.90
5759;DHT22;2904;48.788;9.196;2022-07-18T15:46:36;46.80;24.00
5759;DHT22;2904;48.788;9.196;2022-07-18T15:49:02;46.30;24.10
5759;DHT22;2904;48.788;9.196;2022-07-18T15:53:54;45.40;25.10
5759;DHT22;2904;48.788;9.196;2022-07-18T15:56:20;44.70;25.30
5759;DHT22;2904;48.788;9.196;2022-07-18T15:58:45;43.80;25.40
5759;DHT22;2904;48.788;9.196;2022-07-18T16:01:11;43.00;25.70
5759;DHT22;2904;48.788;9.196;2022-07-18T16:03:37;42.60;26.20
5759;DHT22;2904;48.788;9.196;2022-07-18T16:06:03;41.70;26.10
5759;DHT22;2904;48.788;9.196;2022-07-18T16:08:29;41.10;26.80
5759;DHT22;2904;48.788;9.196;2022-07-18T16:10:54;40.30;26.90
5759;DHT22;2904;48.788;9.196;2022-07-18T16:13:20;39.90;27.80
5759;DHT22;2904;48.788;9.196;2022-07-18T16:15:46;39.70;27.90
5759;DHT22;2904;48.788;9.196;2022-07-18T16:18:13;38.60;28.20
5759;DHT22;2904;48.788;9.196;2022-07-18T16:20:40;37.70;29.10
5759;DHT22;2904;48.788;9.196;2022-07-18T16:35:16;37.40;30.30
5759;DHT22;2904;48.788;9.196;2022-07-18T16:37:44;36.70;29.90
5759;DHT22;2904;48.788;9.196;2022-07-18T16:40:11;37.60;30.90
5759;DHT22;2904;48.788;9.196;2022-07-18T16:42:37;36.60;29.80
5759;DHT22;2904;48.788;9.196;2022-07-18T16:45:05;37.00;29.80
5759;DHT22;2904;48.788;9.196;2022-07-18T16:49:57;37.40;30.50
5759;DHT22;2904;48.788;9.196;2022-07-18T16:57:19;38.20;30.90
5759;DHT22;2904;48.788;9.196;2022-07-18T17:09:31;36.90;30.90
5759;DHT22;2904;48.788;9.196;2022-07-18T17:11:57;36.80;30.80
5759;DHT22;2904;48.788;9.196;2022-07-18T17:16:49;36.80;33.00
5759;DHT22;2904;48.788;9.196;2022-07-18T17:19:16;36.10;32.20
5759;DHT22;2904;48.788;9.196;2022-07-18T17:21:42;36.40;32.80
5759;DHT22;2904;48.788;9.196;2022-07-18T17:24:09;36.40;32.60
5759;DHT22;2904;48.788;9.196;2022-07-18T17:26:35;36.10;32.60
5759;DHT22;2904;48.788;9.196;2022-07-18T17:29:01;36.50;33.20
5759;DHT22;2904;48.788;9.196;2022-07-18T17:31:27;35.90;33.80
5759;DHT22;2904;48.788;9.196;2022-07-18T17:36:20;35.60;34.10
5759;DHT22;2904;48.788;9.196;2022-07-18T17:38:50;35.60;34.80
5759;DHT22;2904;48.788;9.196;2022-07-18T17:41:17;35.20;34.00
5759;DHT22;2904;48.788;9.196;2022-07-18T17:43:43;35.60;35.30
5759;DHT22;2904;48.788;9.196;2022-07-18T17:46:12;35.30;33.70
5759;DHT22;2904;48.788;9.196;2022-07-18T17:48:39;36.20;35.80
5759;DHT22;2904;48.788;9.196;2022-07-18T17:51:05;35.60;34.00
5759;DHT22;2904;48.788;9.196;2022-07-18T17:53:33;36.40;33.80
5759;DHT22;2904;48.788;9.196;2022-07-18T17:55:59;37.10;33.00
5759;DHT22;2904;48.788;9.196;2022-07-18T18:00:52;37.60;31.70
5759;DHT22;2904;48.788;9.196;2022-07-18T18:03:18;38.10;32.90
5759;DHT22;2904;48.788;9.196;2022-07-18T18:15:27;36.90;32.40
5759;DHT22;2904;48.788;9.196;2022-07-18T18:17:53;36.80;32.80
5759;DHT22;2904;48.788;9.196;2022-07-18T18:20:19;36.50;33.20
5759;DHT22;2904;48.788;9.196;2022-07-18T18:22:45;35.90;35.00
5759;DHT22;2904;48.788;9.196;2022-07-18T18:25:11;35.70;36.00
5759;DHT22;2904;48.788;9.196;2022-07-18T18:27:37;35.00;35.90
5759;DHT22;2904;48.788;9.196;2022-07-18T18:30:08;34.20;36.90
5759;DHT22;2904;48.788;9.196;2022-07-18T18:35:02;34.70;37.10
5759;DHT22;2904;48.788;9.196;2022-07-18T18:37:28;35.00;37.50
5759;DHT22;2904;48.788;9.196;2022-07-18T18:42:20;35.10;37.00
5759;DHT22;2904;48.788;9.196;2022-07-18T18:44:45;33.90;36.70
5759;DHT22;2904;48.788;9.196;2022-07-18T18:49:37;33.60;38.60
5759;DHT22;2904;48.788;9.196;2022-07-18T18:52:03;33.40;39.30